createdAt,value
2022-12-29T00:00:42.928Z,9.7
2022-12-29T00:05:49.023Z,9.8
2022-12-29T00:10:55.131Z,9.8
2022-12-29T00:16:01.320Z,9.8
2022-12-29T00:21:07.524Z,9.9
2022-12-29T00:26:13.515Z,9.9
2022-12-29T00:31:19.719Z,9.9
2022-12-29T00:36:25.736Z,9.9
2022-12-29T00:41:31.812Z,9.9
2022-12-29T00:46:37.949Z,10
2022-12-29T00:51:44.084Z,10
2022-12-29T00:56:50.053Z,10
2022-12-29T01:01:55.150Z,10.1
2022-12-29T01:07:01.355Z,10.1
2022-12-29T01:12:07.435Z,10
2022-12-29T01:17:13.547Z,10
2022-12-29T01:22:19.643Z,10.1
2022-12-29T01:27:25.730Z,10.1
2022-12-29T01:32:31.741Z,10.2
2022-12-29T01:37:37.836Z,10.3
2022-12-29T01:42:44.096Z,10.2
2022-12-29T01:47:50.213Z,10.3
2022-12-29T01:52:56.047Z,10.4
2022-12-29T01:58:02.133Z,10.5
2022-12-29T02:03:08.246Z,10.7
2022-12-29T02:08:13.460Z,10.7
2022-12-29T02:13:19.425Z,10.7
2022-12-29T02:18:25.554Z,10.7
2022-12-29T02:23:31.835Z,10.6
2022-12-29T02:28:37.737Z,10.6
2022-12-29T02:33:44.063Z,10.7
2022-12-29T02:38:50.087Z,10.8
2022-12-29T02:43:56.012Z,10.8
2022-12-29T02:49:02.258Z,10.8
2022-12-29T02:54:08.352Z,10.9
2022-12-29T02:59:14.489Z,10.9
2022-12-29T03:04:20.537Z,10.9
2022-12-29T03:09:26.629Z,10.8
2022-12-29T03:14:31.709Z,10.9
2022-12-29T03:19:37.929Z,10.9
2022-12-29T03:24:43.828Z,10.9
2022-12-29T03:29:49.879Z,11
2022-12-29T03:34:55.973Z,11.1
2022-12-29T03:40:02.099Z,11.2
2022-12-29T03:45:08.175Z,11.3
2022-12-29T03:50:14.394Z,11.2
2022-12-29T03:55:20.386Z,11.4
2022-12-29T04:00:26.538Z,11.4
2022-12-29T04:05:32.659Z,11.4
2022-12-29T04:10:38.694Z,11.4
2022-12-29T04:15:44.742Z,11.3
2022-12-29T04:20:50.000Z,11.3
2022-12-29T04:25:56.112Z,11.4
2022-12-29T04:31:02.224Z,11.3
2022-12-29T04:36:08.143Z,11.3
2022-12-29T04:41:14.459Z,11.2
2022-12-29T04:46:20.528Z,11.1
2022-12-29T04:51:26.419Z,10.8
2022-12-29T04:56:32.528Z,10.6
2022-12-29T05:01:38.613Z,10.4
2022-12-29T05:06:44.705Z,10.2
2022-12-29T05:11:50.804Z,10.2
2022-12-29T05:16:57.009Z,10.1
2022-12-29T05:22:03.115Z,10.1
2022-12-29T05:27:08.116Z,10.1
2022-12-29T05:32:14.293Z,10.1
2022-12-29T05:37:20.540Z,10.2
2022-12-29T05:42:26.467Z,10.3
2022-12-29T05:47:32.728Z,10.2
2022-12-29T05:52:38.682Z,10.2
2022-12-29T05:57:44.738Z,10.4
2022-12-29T06:02:50.958Z,10.7
2022-12-29T06:07:57.034Z,10.8
2022-12-29T06:13:03.026Z,10.9
2022-12-29T06:18:09.062Z,10.9
2022-12-29T06:23:15.166Z,10.9
2022-12-29T06:28:21.264Z,10.9
2022-12-29T06:33:26.425Z,11
2022-12-29T06:38:32.487Z,11.1
2022-12-29T06:43:38.647Z,11.3
2022-12-29T06:48:44.674Z,11.3
2022-12-29T06:53:50.736Z,11.2
2022-12-29T06:58:56.016Z,11.1
2022-12-29T07:04:02.167Z,10.9
2022-12-29T07:09:08.184Z,11
2022-12-29T07:14:15.591Z,11.1
2022-12-29T07:19:20.615Z,11.1
2022-12-29T07:24:26.348Z,11.1
2022-12-29T07:29:32.598Z,11.1
2022-12-29T07:34:38.767Z,11.1
2022-12-29T07:39:44.619Z,11
2022-12-29T07:44:50.714Z,11
2022-12-29T07:49:56.819Z,11
2022-12-29T07:55:02.930Z,11.1
2022-12-29T08:00:09.011Z,11.2
2022-12-29T08:05:14.192Z,11.2
2022-12-29T08:10:20.212Z,11.3
2022-12-29T08:15:26.380Z,11.4
2022-12-29T08:20:32.549Z,11.5
2022-12-29T08:25:38.686Z,11.6
2022-12-29T08:30:44.792Z,11.6
2022-12-29T08:35:50.828Z,11.7
2022-12-29T08:40:56.909Z,11.8
2022-12-29T08:46:02.978Z,12
2022-12-29T08:51:09.159Z,12.2
2022-12-29T08:56:15.261Z,12.4
2022-12-29T09:01:21.329Z,12.7
2022-12-29T09:06:27.268Z,12.9
2022-12-29T09:11:32.386Z,13
2022-12-29T09:16:38.527Z,12.9
2022-12-29T09:21:44.576Z,12.8
2022-12-29T09:26:50.802Z,12.8
2022-12-29T09:31:56.788Z,12.8
2022-12-29T09:37:02.962Z,12.9
2022-12-29T09:42:09.003Z,12.9
2022-12-29T09:47:15.183Z,13
2022-12-29T09:52:21.307Z,13.1
2022-12-29T09:57:27.383Z,13.2
2022-12-29T10:02:33.515Z,13.3
2022-12-29T10:07:39.676Z,13.5
2022-12-29T10:12:45.759Z,13.5
2022-12-29T10:17:50.649Z,13.7
2022-12-29T10:22:56.791Z,14.1
2022-12-29T10:28:02.994Z,14.5
2022-12-29T10:33:08.930Z,14.3
2022-12-29T10:38:15.020Z,14.2
2022-12-29T10:43:21.128Z,14.1
2022-12-29T10:48:27.234Z,14.1
2022-12-29T10:53:33.301Z,14.1
2022-12-29T10:58:39.423Z,14
2022-12-29T11:03:45.506Z,14
2022-12-29T11:08:51.598Z,14.3
2022-12-29T11:13:57.701Z,14.2
2022-12-29T11:19:03.791Z,14.1
2022-12-29T11:24:08.895Z,14.2
2022-12-29T11:29:14.983Z,14.4
2022-12-29T11:34:21.089Z,14.4
2022-12-29T11:39:27.188Z,14.3
2022-12-29T11:44:33.275Z,14.3
2022-12-29T11:49:39.376Z,14.2
2022-12-29T11:54:45.463Z,14.3
2022-12-29T11:59:51.569Z,14.5
2022-12-29T12:04:57.654Z,14.5
2022-12-29T12:10:03.753Z,14.4
2022-12-29T12:15:09.854Z,14.3
2022-12-29T12:20:15.966Z,14.3
2022-12-29T12:25:22.027Z,14.2
2022-12-29T12:30:27.161Z,14
2022-12-29T12:35:33.248Z,13.9
2022-12-29T12:40:39.337Z,13.8
2022-12-29T12:45:45.439Z,13.8
2022-12-29T12:50:51.540Z,13.8
2022-12-29T12:55:57.762Z,13.8
2022-12-29T13:01:03.831Z,13.8
2022-12-29T13:06:09.891Z,13.7
2022-12-29T13:11:16.105Z,13.6
2022-12-29T13:16:22.115Z,13.7
2022-12-29T13:21:28.204Z,13.8
2022-12-29T13:26:34.340Z,13.9
2022-12-29T13:31:40.677Z,13.7
2022-12-29T13:36:45.411Z,13.6
2022-12-29T13:41:51.562Z,13.5
2022-12-29T13:46:57.606Z,13.5
2022-12-29T13:52:03.692Z,13.5
2022-12-29T13:57:09.936Z,13.3
2022-12-29T14:02:15.898Z,13.2
2022-12-29T14:07:21.984Z,13.3
2022-12-29T14:12:28.083Z,13.3
2022-12-29T14:17:34.188Z,13.4
2022-12-29T14:22:40.266Z,13.1
2022-12-29T14:27:46.368Z,13
2022-12-29T14:32:52.465Z,12.9
2022-12-29T14:37:58.567Z,12.8
2022-12-29T14:43:03.672Z,12.7
2022-12-29T14:48:09.777Z,12.6
2022-12-29T14:53:15.873Z,12.6
2022-12-29T14:58:21.967Z,12.6
2022-12-29T15:03:28.056Z,12.6
2022-12-29T15:08:34.150Z,12.5
2022-12-29T15:13:40.247Z,12.3
2022-12-29T15:18:46.342Z,12.1
2022-12-29T15:23:52.432Z,12
2022-12-29T15:28:58.531Z,11.9
2022-12-29T15:34:04.626Z,11.9
2022-12-29T15:39:10.724Z,11.9
2022-12-29T15:44:16.831Z,11.7
2022-12-29T15:49:21.929Z,11.6
2022-12-29T15:54:28.031Z,11.4
2022-12-29T15:59:34.115Z,11.2
2022-12-29T16:04:40.212Z,11.2
2022-12-29T16:09:46.310Z,11.2
2022-12-29T16:14:52.391Z,11.2
2022-12-29T16:19:58.485Z,11
2022-12-29T16:25:04.620Z,10.9
2022-12-29T16:30:10.704Z,10.7
2022-12-29T16:35:16.774Z,10.5
2022-12-29T16:40:22.872Z,10.5
2022-12-29T16:50:35.094Z,10.3
2022-12-29T16:55:40.170Z,10.3
2022-12-29T17:00:46.287Z,10.2
2022-12-29T17:05:52.368Z,10.1
2022-12-29T17:10:58.463Z,10
2022-12-29T17:16:04.563Z,9.9
2022-12-29T17:21:10.665Z,9.8
2022-12-29T17:26:16.766Z,9.7
2022-12-29T17:31:22.859Z,9.6
2022-12-29T17:36:28.942Z,9.5
2022-12-29T17:41:35.060Z,9.6
2022-12-29T17:46:41.147Z,9.5
2022-12-29T17:51:47.253Z,9.6
2022-12-29T17:56:53.315Z,9.7
2022-12-29T18:01:58.463Z,9.8
2022-12-29T18:07:04.530Z,9.8
2022-12-29T18:12:10.642Z,9.7
2022-12-29T18:17:16.728Z,9.6
2022-12-29T18:22:22.834Z,9.5
2022-12-29T18:27:28.917Z,9.3
2022-12-29T18:32:35.015Z,9.2
2022-12-29T18:37:41.107Z,9.2
2022-12-29T18:42:47.202Z,9
2022-12-29T18:47:53.328Z,9
2022-12-29T18:52:59.392Z,8.8
2022-12-29T18:58:05.498Z,8.8
2022-12-29T19:03:11.588Z,8.8
2022-12-29T19:08:16.714Z,8.6
2022-12-29T19:13:22.786Z,8.6
2022-12-29T19:18:28.929Z,8.6
2022-12-29T19:23:34.996Z,8.5
2022-12-29T19:28:41.088Z,8.5
2022-12-29T19:33:47.184Z,8.5
2022-12-29T19:38:53.272Z,8.6
2022-12-29T19:43:59.372Z,8.6
2022-12-29T19:49:05.476Z,8.6
2022-12-29T19:54:11.564Z,8.6
2022-12-29T19:59:17.657Z,8.7
2022-12-29T20:04:23.750Z,8.7
2022-12-29T20:09:29.843Z,8.6
2022-12-29T20:14:34.968Z,8.5
2022-12-29T20:19:41.066Z,8.4
2022-12-29T20:24:47.223Z,8.3
2022-12-29T20:29:53.361Z,8.2
2022-12-29T20:34:59.370Z,8.1
2022-12-29T20:40:05.439Z,8.1
2022-12-29T20:45:11.554Z,8.1
2022-12-29T20:50:17.631Z,8.2
2022-12-29T20:55:23.728Z,8.3
2022-12-29T21:00:29.822Z,8.2
2022-12-29T21:05:35.924Z,8.2
2022-12-29T21:10:42.107Z,8.3
2022-12-29T21:15:48.219Z,8.3
2022-12-29T21:20:53.243Z,8.2
2022-12-29T21:25:59.328Z,8.2
2022-12-29T21:31:05.411Z,8.1
2022-12-29T21:36:11.546Z,8.1
2022-12-29T21:41:17.600Z,8.2
2022-12-29T21:46:23.714Z,8.2
2022-12-29T21:51:29.798Z,8.3
2022-12-29T21:56:35.903Z,8.8
2022-12-29T22:01:41.997Z,9.1
2022-12-29T22:06:48.095Z,9.1
2022-12-29T22:11:54.197Z,9.1
2022-12-29T22:17:00.289Z,8.9
2022-12-29T22:22:06.399Z,8.7
2022-12-29T22:27:11.491Z,8.2
2022-12-29T22:32:17.583Z,8
2022-12-29T22:37:23.680Z,7.8
2022-12-29T22:42:29.774Z,7.8
2022-12-29T22:47:35.876Z,7.9
2022-12-29T22:52:41.977Z,7.8
2022-12-29T22:57:48.126Z,7.7
2022-12-29T23:02:54.160Z,7.7
2022-12-29T23:08:00.271Z,7.6
2022-12-29T23:13:06.352Z,7.6
2022-12-29T23:18:12.463Z,7.6
2022-12-29T23:23:18.563Z,7.5
2022-12-29T23:28:24.629Z,7.5
2022-12-29T23:33:29.760Z,7.6
2022-12-29T23:38:35.875Z,7.7
2022-12-29T23:43:41.959Z,7.7
2022-12-29T23:48:48.062Z,7.6
2022-12-29T23:53:54.124Z,7.7
2022-12-29T23:59:00.265Z,7.7
